Latest Weather Observations for High Range (Wanganderry)

IDN60801

Issued at 8:03 am EST Monday 25 July 2016 (issued every 30 minutes, with the page automatically refreshed every 10 minutes)

About weather observations | Map of weather stations | Latest weather observations for NSW | Other Formats
Station Details ID: 068262 Name: HIGH RANGE AWS (WANGANDERRY) Lat: -34.33 Lon: 150.27 Height: 813.6 m
Data from the previous 72 hours. | See also: Recent months for locations in New South Wales
Date/Time
EST
Temp
°C
App
Temp
°C
Dew
Point
°C
Rel
Hum
%
Delta-T
°C
Wind Press
QNH
hPa
Press
MSL
hPa
Rain since
9am
mm
Dir  Spd
km/h
Gust
km/h
Spd
kts
Gust
kts
25/08:00am 4.3 -4.6 0.6 77 1.5 W 37 54 20 29 1010.5 1010.9 0.0
25/07:35am 4.2 -3.7 0.9 79 1.3 W 32 50 17 27 1010.5 1010.9 0.0
25/07:30am 4.0 -4.1 1.0 81 1.2 W 33 50 18 27 1010.5 1010.9 0.0
25/07:00am 4.0 -4.5 0.9 80 1.3 W 35 54 19 29 1010.0 1010.5 0.0
25/06:30am 3.9 -4.2 0.8 80 1.3 WNW 33 52 18 28 1009.6 1010.0 0.0
25/06:29am 3.8 -4.3 0.7 80 1.3 WNW 33 52 18 28 1009.7 1010.1 0.0
25/06:00am 3.8 -2.3 0.7 80 1.3 WNW 22 41 12 22 1009.6 1010.0 0.0
25/05:30am 3.6 -1.9 0.3 79 1.3 WNW 19 39 10 21 1009.4 1009.8 0.0
25/05:00am 3.3 -3.3 -0.2 78 1.4 W 24 33 13 18 1009.3 1009.7 0.0
25/04:30am 3.3 -4.0 -0.3 77 1.4 W 28 43 15 23 1009.2 1009.6 0.0
25/04:00am 3.4 -4.7 -0.4 76 1.5 W 32 46 17 25 1009.2 1009.6 0.0
25/03:30am 3.6 -4.7 -0.4 75 1.6 W 33 48 18 26 1009.1 1009.5 0.0
25/03:02am 3.7 -5.7 -0.3 75 1.6 W 39 61 21 33 1009.1 1009.5 0.0
25/03:00am 3.6 -5.8 0.0 77 1.4 W 39 52 21 28 1009.1 1009.5 0.0
25/02:34am 3.6 -5.8 0.1 78 1.4 W 39 57 21 31 1009.4 1009.8 0.0
25/02:30am 3.7 -6.4 0.2 78 1.4 W 43 57 23 31 1009.3 1009.7 0.0
25/02:18am 3.7 -5.2 0.6 80 1.2 W 37 56 20 30 1009.4 1009.8 0.0
25/02:00am 4.1 -4.0 1.1 81 1.2 W 33 50 18 27 1009.5 1009.9 0.0
25/01:51am 4.2 -2.9 1.2 81 1.2 W 28 50 15 27 1009.4 1009.8 0.0
25/01:30am 4.5 -2.5 2.0 84 1.1 WNW 28 44 15 24 1009.6 1010.0 0.0
25/01:00am 4.2 -1.7 1.9 85 1.0 W 22 35 12 19 1009.4 1009.8 0.0
25/12:30am 4.4 -1.4 2.1 85 1.0 WNW 22 30 12 16 1009.8 1010.3 0.0
25/12:00am 4.5 -0.7 2.2 85 1.0 WNW 19 26 10 14 1010.2 1010.7 0.0
 
Date/Time
EST
Temp
°C
App
Temp
°C
Dew
Point
°C
Rel
Hum
%
Delta-T
°C
Wind Press
QNH
hPa
Press
MSL
hPa
Rain since
9am
mm
Dir  Spd
km/h
Gust
km/h
Spd
kts
Gust
kts
24/11:30pm 4.1 -0.1 1.6 84 1.0 W 13 20 7 11 1010.1 1010.6 0.0
24/11:00pm 4.3 -2.0 1.3 81 1.2 WNW 24 35 13 19 1010.3 1010.8 0.0
24/10:30pm 4.7 -0.3 1.2 78 1.4 WNW 17 24 9 13 1010.7 1011.1 0.0
24/10:00pm 4.6 -0.2 0.4 74 1.7 WNW 15 24 8 13 1010.9 1011.4 0.0
24/09:30pm 4.8 0.3 -0.2 70 2.0 NNW 13 24 7 13 1010.8 1011.3 0.0
24/09:00pm 4.7 -1.0 -0.7 68 2.1 NW 19 26 10 14 1010.9 1011.4 0.0
24/08:30pm 4.5 -0.1 -1.3 66 2.2 NW 13 20 7 11 1011.1 1011.6 0.0
24/08:00pm 4.7 -1.0 -1.1 66 2.3 NNW 19 32 10 17 1010.8 1011.3 0.0
24/07:30pm 4.5 -0.5 -1.5 65 2.3 NW 15 24 8 13 1011.0 1011.5 0.0
24/07:00pm 4.3 0.0 -1.9 64 2.4 NW 11 17 6 9 1011.2 1011.7 0.0
24/06:30pm 4.5 0.2 -1.5 65 2.3 NW 11 15 6 8 1011.0 1011.5 0.0
24/06:00pm 4.2 -0.4 -1.4 67 2.2 W 13 20 7 11 1010.9 1011.4 0.0
24/05:30pm 3.9 -1.2 -1.7 67 2.1 W 15 20 8 11 1010.6 1011.0 0.0
24/05:00pm 4.7 -1.7 -1.5 64 2.4 W 22 32 12 17 1010.6 1011.0 0.0
24/04:30pm 5.5 -2.1 -1.9 59 2.9 W 28 39 15 21 1010.1 1010.6 0.0
24/04:00pm 5.6 -1.9 -1.5 60 2.8 W 28 37 15 20 1009.7 1010.1 0.0
24/03:30pm 5.9 -1.3 -2.0 57 3.1 W 26 35 14 19 1010.0 1010.5 0.0
24/03:00pm 6.2 0.1 -2.2 55 3.2 WNW 20 30 11 16 1010.7 1011.1 0.0
24/02:30pm 6.0 -2.5 -2.1 56 3.1 WNW 33 56 18 30 1010.9 1011.4 0.0
24/02:24pm 5.6 -2.1 -2.7 55 3.1 WNW 28 56 15 30 1010.9 1011.4 0.0
24/02:00pm 6.4 -1.6 -2.2 54 3.3 WNW 30 43 16 23 1011.1 1011.6 0.0
24/01:30pm 6.1 -2.4 -2.0 56 3.1 W 33 46 18 25 1011.2 1011.7 0.0
24/01:00pm 4.8 -3.6 -2.3 60 2.7 W 32 48 17 26 1012.1 1012.6 0.0
24/12:52pm 6.0 -1.9 -1.2 60 2.8 W 30 48 16 26 1012.2 1012.7 0.0
24/12:30pm 5.5 -2.9 -1.4 61 2.7 W 33 46 18 25 1012.5 1013.0 0.0
24/12:00pm 5.6 -2.3 -1.8 59 2.9 W 30 39 16 21 1012.8 1013.3 0.0
24/11:30am 5.0 -1.7 -1.4 63 2.5 W 24 33 13 18 1013.4 1013.9 0.0
24/11:00am 4.7 -2.4 -0.9 67 2.2 W 26 33 14 18 1013.9 1014.5 0.0
24/10:30am 4.0 -2.7 -1.4 68 2.1 W 24 32 13 17 1014.0 1014.6 0.0
24/10:00am 3.9 -2.1 -1.5 68 2.1 WSW 20 30 11 16 1014.0 1014.6 0.0
24/09:30am 2.8 -4.3 -1.4 74 1.6 WSW 26 33 14 18 1013.9 1014.5 0.0
24/09:00am 1.7 -4.4 -2.4 74 1.5 WSW 20 30 11 16 1014.1 1014.7 0.0
24/08:30am 1.3 -5.6 -2.6 75 1.5 WSW 24 30 13 16 1013.6 1014.1 0.0
24/08:00am 0.8 -6.8 -2.4 79 1.2 WSW 28 32 15 17 1013.3 1013.8 0.0
24/07:30am 0.1 -6.4 -2.4 83 0.9 W 22 28 12 15 1013.3 1013.8 0.0
24/07:00am 0.1 -7.2 -2.8 81 1.0 WSW 26 33 14 18 1012.6 1013.1 0.0
24/06:30am 0.1 -7.9 -2.6 82 1.0 WSW 30 33 16 18 1012.4 1012.9 0.0
24/06:00am 0.2 -6.7 -2.7 81 1.0 WSW 24 30 13 16 1013.3 1013.8 0.0
24/05:30am 0.1 -7.2 -2.8 81 1.0 WSW 26 30 14 16 1012.7 1013.2 0.0
24/05:00am -0.3 -6.3 -3.0 82 0.9 SW 19 20 10 11 1012.8 1013.3 0.0
24/04:30am -0.1 -6.7 -3.0 81 1.0 SW 22 28 12 15 1012.3 1012.8 0.0
24/04:00am 0.4 -5.6 -3.0 78 1.2 SW 19 24 10 13 1012.6 1013.1 0.0
24/03:30am 0.8 -5.8 -2.9 76 1.4 WSW 22 30 12 16 1012.5 1013.0 0.0
24/03:00am 1.0 -5.0 -3.3 73 1.6 WSW 19 33 10 18 1012.4 1012.9 0.0
24/02:30am 1.2 -6.5 -3.3 72 1.7 W 28 39 15 21 1012.2 1012.7 0.0
24/02:11am 1.2 -6.9 -3.3 72 1.7 W 30 48 16 26 1011.9 1012.4 0.0
24/02:00am 1.3 -7.2 -3.4 71 1.7 W 32 41 17 22 1011.8 1012.2 0.0
24/01:30am 1.7 -6.1 -3.6 68 2.0 W 28 46 15 25 1012.3 1012.8 0.0
24/01:14am 1.8 -6.9 -3.5 68 2.0 W 33 54 18 29 1011.9 1012.4 0.0
24/01:00am 1.8 -6.4 -3.7 67 2.0 W 30 46 16 25 1012.0 1012.5 0.0
24/12:30am 2.0 -6.7 -3.7 66 2.1 W 33 54 18 29 1011.8 1012.2 0.0
24/12:01am 1.9 -6.7 -4.0 65 2.2 W 32 54 17 29 1011.8 1012.2 0.0
24/12:00am 2.0 -6.2 -4.1 64 2.3 W 30 41 16 22 1011.8 1012.2 0.0
 
Date/Time
EST
Temp
°C
App
Temp
°C
Dew
Point
°C
Rel
Hum
%
Delta-T
°C
Wind Press
QNH
hPa
Press
MSL
hPa
Rain since
9am
mm
Dir  Spd
km/h
Gust
km/h
Spd
kts
Gust
kts
23/11:33pm 2.2 -7.0 -4.1 63 2.3 W 35 63 19 34 1011.8 1012.2 0.0
23/11:30pm 2.2 -7.0 -4.1 63 2.3 W 35 46 19 25 1011.8 1012.2 0.0
23/11:03pm 2.4 -8.5 -4.1 62 2.3 W 44 65 24 35 1011.0 1011.5 0.0
23/11:00pm 2.6 -8.7 -4.1 61 2.4 W 46 65 25 35 1010.9 1011.4 0.0
23/10:30pm 2.5 -8.4 -4.0 62 2.3 W 44 70 24 38 1010.7 1011.1 0.0
23/10:07pm 2.8 -9.6 -4.2 60 2.5 W 52 70 28 38 1010.5 1010.9 0.0
23/10:00pm 2.9 -9.1 -4.1 60 2.5 W 50 69 27 37 1010.3 1010.8 0.0
23/09:30pm 3.0 -9.8 -4.0 60 2.5 W 54 74 29 40 1009.6 1010.0 0.0
23/09:00pm 3.2 -8.3 -3.1 63 2.3 WSW 48 70 26 38 1009.4 1009.8 0.0
23/08:30pm 3.8 -9.4 -3.0 61 2.5 W 57 87 31 47 1008.7 1009.2 0.0
23/08:00pm 4.1 -9.0 -2.3 63 2.4 W 57 78 31 42 1008.4 1008.8 0.0
23/07:30pm 4.1 -9.1 -2.5 62 2.5 W 57 78 31 42 1008.2 1008.6 0.0
23/07:00pm 4.3 -8.8 -1.9 64 2.4 W 57 78 31 42 1007.8 1008.2 0.0
23/06:30pm 4.4 -8.7 -1.8 64 2.4 W 57 91 31 49 1007.4 1007.8 0.0
23/06:26pm 4.3 -7.8 -1.5 66 2.2 W 52 80 28 43 1007.5 1007.9 0.0
23/06:21pm 4.2 -8.2 -1.2 68 2.1 W 54 74 29 40 1007.4 1007.8 0.0
23/06:00pm 4.3 -10.6 -1.1 68 2.1 W 67 93 36 50 1006.5 1006.8 0.0
23/05:30pm 4.5 -9.5 -0.3 71 1.9 W 63 85 34 46 1005.9 1006.3 0.0
23/05:00pm 5.3 -7.5 0.3 70 2.0 W 57 78 31 42 1005.7 1006.1 0.0
23/04:30pm 5.8 -7.7 0.4 68 2.2 W 61 83 33 45 1005.0 1005.4 0.0
23/04:00pm 6.3 -7.3 -0.4 62 2.7 W 61 83 33 45 1004.8 1005.2 0.0
23/03:30pm 6.3 -7.2 0.2 65 2.5 W 61 82 33 44 1004.2 1004.5 0.0
23/03:00pm 6.9 -6.7 0.1 62 2.8 W 61 89 33 48 1003.9 1004.2 0.0
23/02:30pm 7.0 -5.6 1.3 67 2.4 W 57 91 31 49 1003.6 1004.0 0.0
23/02:00pm 7.4 -4.5 2.1 69 2.3 W 54 82 29 44 1003.4 1003.8 0.0
23/01:30pm 7.0 -5.4 1.5 68 2.3 W 56 91 30 49 1002.8 1003.1 0.0
23/01:00pm 7.0 -6.2 2.3 72 2.1 W 61 87 33 47 1003.0 1003.3 0.0
23/12:30pm 6.7 -5.6 1.8 71 2.1 WNW 56 80 30 43 1002.8 1003.1 0.0
23/12:00pm 6.6 -6.3 1.7 71 2.1 W 59 83 32 45 1002.9 1003.2 0.0
23/11:30am 6.6 -5.0 1.5 70 2.2 W 52 80 28 43 1002.8 1003.1 0.0
23/11:00am 6.1 -6.0 1.2 71 2.1 W 54 80 29 43 1003.2 1003.5 0.0
23/10:30am 6.2 -4.3 1.5 72 2.0 W 46 76 25 41 1003.4 1003.8 0.0
23/10:00am 5.8 -4.3 1.3 73 1.9 W 44 65 24 35 1003.1 1003.4 0.0
23/09:30am 5.3 -7.2 1.1 74 1.7 W 56 80 30 43 1002.4 1002.8 0.0
23/09:00am 5.1 -5.4 1.2 76 1.6 W 46 69 25 37 1002.8 1003.1 19.2
23/08:30am 5.2 -7.5 -0.2 68 2.2 W 56 78 30 42 1002.2 1002.5 19.2
23/08:17am 4.9 -8.3 -0.1 70 2.0 W 59 95 32 51 1001.8 1002.1 19.2
23/08:00am 5.3 -5.5 -0.3 67 2.3 W 46 74 25 40 1002.1 1002.4 19.2
23/07:30am 4.7 -7.4 0.8 76 1.6 WSW 54 78 29 42 1001.6 1001.9 19.2
23/07:00am 4.7 -6.1 1.9 82 1.2 W 48 67 26 36 1001.4 1001.7 19.2
23/06:30am 5.8 -7.4 0.2 67 2.3 W 59 83 32 45 1000.5 1000.8 19.2
23/06:20am 5.9 -8.1 0.0 66 2.4 W 63 87 34 47 1000.1 1000.3 19.2
23/06:18am 6.0 -7.2 -0.1 65 2.5 W 59 83 32 45 1000.1 1000.3 19.2
23/06:12am 5.8 -6.4 0.2 67 2.3 W 54 80 29 43 1000.3 1000.6 19.2
23/06:11am 5.8 -6.4 0.2 67 2.3 W 54 80 29 43 1000.3 1000.6 19.2
23/06:00am 6.3 -8.8 0.2 65 2.5 W 69 100 37 54 999.9 1000.1 19.2
23/05:30am 7.0 -6.0 1.1 66 2.5 W 59 85 32 46 999.4 999.7 19.2
23/05:27am 7.0 -5.6 1.5 68 2.3 W 57 85 31 46 999.4 999.7 19.2
23/05:25am 7.0 -5.4 1.5 68 2.3 W 56 85 30 46 999.2 999.5 19.2
23/05:00am 7.2 -3.1 2.9 74 1.9 W 46 70 25 38 999.1 999.3 19.2
23/04:30am 6.9 -2.6 4.0 82 1.3 W 43 69 23 37 999.0 999.2 19.2
23/04:00am 7.1 -3.6 4.6 84 1.2 W 50 72 27 39 999.0 999.2 19.2
23/03:37am 7.7 -3.3 4.8 82 1.3 WSW 52 83 28 45 998.6 998.8 19.0
23/03:33am 8.3 -0.6 4.9 79 1.6 W 41 72 22 39 998.7 998.9 18.6
23/03:31am 8.8 0.9 4.6 75 2.0 W 35 59 19 32 998.9 999.1 18.6
23/03:30am 8.9 1.4 4.5 74 2.0 W 33 48 18 26 998.8 999.0 18.6
23/03:00am 9.3 -0.2 3.9 69 2.5 W 43 61 23 33 999.0 999.2 18.6
23/02:30am 9.7 -1.1 4.3 69 2.5 W 50 74 27 40 998.8 999.0 18.6
23/02:00am 10.1 -1.1 4.0 66 2.9 W 52 80 28 43 998.6 998.8 18.6
23/01:30am 11.3 0.4 3.6 59 3.6 W 50 70 27 38 998.4 998.7 18.6
23/01:00am 10.5 0.2 4.6 67 2.8 W 48 76 26 41 998.3 998.6 18.6
23/12:57am 11.5 1.8 5.6 67 2.9 W 46 78 25 42 998.6 998.8 18.6
23/12:54am 11.3 1.8 6.6 73 2.3 W 46 78 25 42 998.6 998.8 18.6
23/12:30am 11.4 -0.1 6.9 74 2.2 W 57 83 31 45 999.2 999.5 18.6
23/12:23am 12.1 1.4 6.6 69 2.7 W 52 83 28 45 998.8 999.0 18.6
23/12:00am 12.3 3.6 7.8 74 2.3 W 43 76 23 41 999.1 999.3 18.6
 
Date/Time
EST
Temp
°C
App
Temp
°C
Dew
Point
°C
Rel
Hum
%
Delta-T
°C
Wind Press
QNH
hPa
Press
MSL
hPa
Rain since
9am
mm
Dir  Spd
km/h
Gust
km/h
Spd
kts
Gust
kts
22/11:30pm 12.2 2.9 9.0 81 1.7 W 48 74 26 40 999.1 999.3 18.6
22/11:00pm 12.6 5.2 11.2 91 0.8 W 41 76 22 41 998.9 999.1 18.2
22/10:59pm 12.5 5.5 11.4 93 0.6 W 39 76 21 41 998.9 999.1 18.2
22/10:52pm 12.8 8.2 12.3 97 0.3 W 28 48 15 26 999.3 999.6 17.6
22/10:30pm 13.1 9.3 12.5 96 0.3 W 24 39 13 21 999.5 999.8 16.6
22/10:00pm 13.1 9.8 12.8 98 0.2 WSW 22 32 12 17 999.7 1000.0 14.0
22/09:30pm 12.9 9.8 12.1 95 0.4 W 20 30 11 16 999.4 999.7 8.6
22/09:00pm 12.6 9.0 11.8 95 0.4 WNW 22 32 12 17 999.4 999.7 8.0
22/08:30pm 12.6 6.4 11.5 93 0.6 WNW 35 50 19 27 1000.5 1000.8 7.0
22/08:01pm 12.6 5.7 11.5 93 0.6 W 39 67 21 36 1001.3 1001.5 5.4
22/08:00pm 12.4 5.5 11.5 94 0.5 W 39 67 21 36 1001.4 1001.7 5.4
22/07:52pm 12.3 2.4 11.0 92 0.7 W 54 76 29 41 1001.2 1001.4 3.8
22/07:31pm 13.8 5.7 10.8 82 1.6 W 44 85 24 46 1001.4 1001.7 0.6
22/07:30pm 14.5 6.8 11.5 82 1.7 W 43 67 23 36 1001.6 1001.9 0.4
22/07:29pm 15.1 7.8 11.7 80 1.9 WNW 41 65 22 35 1001.7 1002.0 0.4
22/07:25pm 15.6 9.0 11.2 75 2.5 NW 37 61 20 33 1001.3 1001.5 0.2
22/07:00pm 16.8 11.6 10.2 65 3.7 NW 28 56 15 30 1000.5 1000.8 0.0
22/06:30pm 16.3 12.5 9.9 66 3.5 NW 20 28 11 15 1000.7 1001.0 0.0
22/06:00pm 16.5 9.9 10.1 66 3.5 NW 35 57 19 31 1000.7 1001.0 0.0
22/05:30pm 16.4 9.1 10.3 67 3.4 NNW 39 57 21 31 1000.8 1001.1 0.0
22/05:04pm 16.3 10.2 10.4 68 3.3 NW 33 76 18 41 1000.8 1001.1 0.0
22/05:02pm 16.3 10.4 10.4 68 3.3 NW 32 50 17 27 1000.8 1001.1 0.0
22/05:00pm 16.1 10.2 10.4 69 3.2 NW 32 44 17 24 1001.0 1001.3 0.0
22/04:46pm 16.2 11.1 10.5 69 3.1 NNW 28 48 15 26 1001.3 1001.5 0.0
22/04:30pm 16.2 10.7 10.7 70 3.1 NW 30 46 16 25 1001.8 1002.1 0.0
22/04:00pm 16.0 11.1 11.2 73 2.7 WNW 28 39 15 21 1001.9 1002.2 0.0
22/03:30pm 15.8 10.2 11.4 75 2.5 WNW 32 43 17 23 1002.0 1002.3 0.0
22/03:02pm 16.4 9.1 11.6 73 2.7 WNW 41 59 22 32 1002.8 1003.1 0.0
22/03:00pm 16.5 9.2 11.4 72 2.9 WNW 41 57 22 31 1002.9 1003.2 0.0
22/02:31pm 16.7 8.0 11.2 70 3.1 WNW 48 72 26 39 1002.9 1003.2 0.0
22/02:30pm 16.7 8.0 11.2 70 3.1 WNW 48 61 26 33 1002.9 1003.2 0.0
22/02:03pm 17.1 9.8 11.6 70 3.1 WNW 41 59 22 32 1002.9 1003.2 0.0
22/02:00pm 17.1 9.3 11.2 68 3.3 WNW 43 59 23 32 1003.0 1003.3 0.0
22/01:34pm 17.1 8.9 11.6 70 3.1 WNW 46 65 25 35 1003.5 1003.9 0.0
22/01:30pm 16.9 8.7 11.8 72 2.9 WNW 46 65 25 35 1003.5 1003.9 0.0
22/01:00pm 16.8 8.7 12.1 74 2.7 WNW 46 67 25 36 1004.2 1004.5 0.0
22/12:30pm 16.7 9.0 11.6 72 2.9 WNW 43 61 23 33 1004.9 1005.3 0.0
22/12:00pm 17.3 10.1 11.8 70 3.1 WNW 41 65 22 35 1005.5 1005.8 0.0
22/11:38am 16.9 11.8 11.8 72 2.9 WNW 30 54 16 29 1006.0 1006.4 0.0
22/11:30am 16.6 11.6 12.2 75 2.5 WNW 30 46 16 25 1006.3 1006.7 0.0
22/11:00am 15.4 9.9 11.8 79 2.0 WNW 32 48 17 26 1006.8 1007.2 0.0
22/10:30am 14.2 9.7 11.4 83 1.6 WNW 26 37 14 20 1007.4 1007.8 0.0
22/10:00am 14.1 9.6 11.3 83 1.6 WNW 26 46 14 25 1008.1 1008.5 0.0
22/09:30am 13.3 9.4 10.7 84 1.4 WNW 22 35 12 19 1008.5 1008.9 0.0
22/09:00am 13.1 10.2 9.7 80 1.8 WNW 15 24 8 13 1009.1 1009.5 0.2
22/08:30am 12.4 9.8 9.4 82 1.6 NW 13 20 7 11 1009.2 1009.6 0.2

Other Formats:

Comma delimited format used in spreadsheet applications
http://www.bom.gov.au/fwo/IDN60801/IDN60801.99742.axf

JavaScript Object Notation format (JSON) in row-major order
http://www.bom.gov.au/fwo/IDN60801/IDN60801.99742.json